Archival Weather

Tokyo Intl

Tokyo Intl, Japan (RJTT)

Report from: Friday, June 24, 2022 6:00 PM JST
Current time: Tuesday, August 16, 2022 4:47 PM JST

Current weather
Weather history
Weather forecast

Temperature29.0°C (84.2°F)
Heat index32.9°C (91.2°F)
Dew point23.0°C (73.4°F)
Winds 24 kts (12.3 m/s, 27.6 mph) Vrb
Wind gusts 36 kts (18.5 m/s, 41.4 mph)
Winds variableWinds variable from South (170°) to Southwest (230°)
Visibility6.2 mi. (10 km)
Clouds Ceiling: Broken clouds 0 ft. (0 m)
Few clouds 3,000 ft. (914 m)
Altimeter29.62 in.Hg (1003 mB)
Relative humidity70 %
Density altitude2,330 ft. (710 m)
Remarks No significant changes expected in the next two hours
Flight conditions Low Instrument Meteorological Conditions
Raw dataRJTT 240900Z 21024G36KT 170V230 9999 FEW030 BKN/// 29/23 Q1003 NOSIG RMK 1CU030 A2962
An error has occurred. This application may no longer respond until reloaded. Reload 🗙